createdAt,value
2022-08-22T00:00:10.958Z,101225.69
2022-08-22T00:01:28.889Z,101234.38
2022-08-22T00:02:37.280Z,101228.97
2022-08-22T00:02:43.020Z,101180.03
2022-08-22T00:03:01.812Z,101176.34
2022-08-22T00:03:07.476Z,101230.81
2022-08-22T00:03:08.203Z,101222.34
2022-08-22T00:03:10.965Z,101227.06
2022-08-22T00:03:55.410Z,101230.59
2022-08-22T00:05:03.381Z,101231.44
2022-08-22T00:06:12.783Z,101229.56
2022-08-22T00:07:24.053Z,101226.84
2022-08-22T00:08:35.884Z,101229.56
2022-08-22T00:09:44.714Z,101230.16
2022-08-22T00:10:54.209Z,101224.75
2022-08-22T00:12:09.042Z,101224.75
2022-08-22T00:13:18.421Z,101224.75
2022-08-22T00:14:26.326Z,101225.28
2022-08-22T00:15:42.943Z,101228.81
2022-08-22T00:16:54.640Z,101229.66
2022-08-22T00:18:05.715Z,101226.72
2022-08-22T00:19:18.767Z,101231.88
2022-08-22T00:20:28.370Z,101238.13
2022-08-22T00:21:37.970Z,101226.22
2022-08-22T00:22:48.264Z,101228.69
2022-08-22T00:24:00.277Z,101229.50
2022-08-22T00:25:25.762Z,101226.56
2022-08-22T00:26:44.739Z,101226.56
2022-08-22T00:27:55.065Z,101226.31
2022-08-22T00:29:04.546Z,101228.19
2022-08-22T00:30:11.674Z,101230.69
2022-08-22T00:31:25.514Z,101226.06
2022-08-22T00:32:33.440Z,101240.19
2022-08-22T00:33:43.929Z,101234.78
2022-08-22T00:34:59.470Z,101234.78
2022-08-22T00:36:09.969Z,101235.63
2022-08-22T00:37:21.211Z,101232.91
2022-08-22T00:38:31.068Z,101234.19
2022-08-22T00:39:40.320Z,101237.25
2022-08-22T00:40:53.628Z,101230.19
2022-08-22T00:42:47.660Z,101236.41
2022-08-22T00:44:10.830Z,101237.50
2022-08-22T00:45:27.293Z,101233.16
2022-08-22T00:46:47.779Z,101237.72
2022-08-22T00:48:06.377Z,101232.31
2022-08-22T00:49:20.771Z,101233.41
2022-08-22T00:50:49.382Z,101237.38
2022-08-22T00:52:19.124Z,101242.81
2022-08-22T00:53:42.927Z,101237.38
2022-08-22T00:55:11.509Z,101236.81
2022-08-22T00:56:52.589Z,101236.22
2022-08-22T00:58:19.147Z,101233.75
2022-08-22T00:59:42.148Z,101236.13
2022-08-22T01:00:52.039Z,101232.63
2022-08-22T01:02:04.093Z,101238.03
2022-08-22T01:03:26.970Z,101230.16
2022-08-22T01:04:51.019Z,101234.72
2022-08-22T01:06:05.604Z,101234.38
2022-08-22T01:07:24.296Z,101232.50
2022-08-22T01:08:55.527Z,101237.09
2022-08-22T01:10:14.721Z,101240.28
2022-08-22T01:11:40.779Z,101239.47
2022-08-22T01:13:04.740Z,101236.16
2022-08-22T01:14:20.324Z,101236.41
2022-08-22T01:15:40.547Z,101236.66
2022-08-22T01:17:05.432Z,101234.78
2022-08-22T01:18:27.691Z,101236.91
2022-08-22T01:20:10.617Z,101239.84
2022-08-22T01:21:45.790Z,101237.38
2022-08-22T01:23:22.010Z,101232.22
2022-08-22T01:25:15.753Z,101228.91
2022-08-22T01:27:03.725Z,101228.09
2022-08-22T01:28:37.856Z,101232.66
2022-08-22T01:30:18.518Z,101232.09
2022-08-22T01:31:39.056Z,101230.44
2022-08-22T01:33:22.561Z,101229.84
2022-08-22T01:34:47.378Z,101228.22
2022-08-22T01:36:40.814Z,101227.38
2022-08-22T01:38:15.507Z,101234.69
2022-08-22T01:39:49.679Z,101233.63
2022-08-22T01:41:21.261Z,101232.81
2022-08-22T01:42:53.568Z,101234.47
2022-08-22T01:44:25.168Z,101233.63
2022-08-22T01:46:03.413Z,101237.97
2022-08-22T01:47:13.551Z,101239.63
2022-08-22T01:48:21.721Z,101240.47
2022-08-22T01:49:29.420Z,101244.81
2022-08-22T01:50:39.275Z,101242.94
2022-08-22T01:51:48.716Z,101245.63
2022-08-22T01:53:00.329Z,101245.63
2022-08-22T01:54:10.045Z,101238.56
2022-08-22T01:55:25.931Z,101239.38
2022-08-22T01:56:36.317Z,101239.63
2022-08-22T01:57:53.204Z,101252.81
2022-08-22T01:58:58.804Z,101239.03
2022-08-22T02:00:17.510Z,101239.28
2022-08-22T02:01:36.004Z,101240.91
2022-08-22T02:02:58.116Z,101248.22
2022-08-22T02:04:06.282Z,101242.00
2022-08-22T02:05:20.583Z,101239.28
2022-08-22T02:06:33.278Z,101241.16
2022-08-22T02:07:47.555Z,101244.09
2022-08-22T02:09:00.454Z,101234.94
2022-08-22T02:10:11.456Z,101236.56
2022-08-22T02:11:36.184Z,101238.22
2022-08-22T02:12:46.045Z,101242.22
2022-08-22T02:13:58.121Z,101242.00
2022-08-22T02:15:13.819Z,101242.00
2022-08-22T02:16:26.957Z,101243.63
2022-08-22T02:17:32.472Z,101238.22
2022-08-22T02:18:51.025Z,101238.44
2022-08-22T02:20:00.037Z,101228.47
2022-08-22T02:21:11.373Z,101237.41
2022-08-22T02:22:31.642Z,101234.94
2022-08-22T02:23:44.187Z,101230.09
2022-08-22T02:24:55.644Z,101240.91
2022-08-22T02:26:06.455Z,101249.03
2022-08-22T02:27:29.892Z,101242.59
2022-08-22T02:28:42.440Z,101242.00
2022-08-22T02:30:06.554Z,101238.22
2022-08-22T02:31:16.938Z,101244.44
2022-08-22T02:32:26.165Z,101240.69
2022-08-22T02:33:42.779Z,101239.03
2022-08-22T02:34:56.678Z,101240.69
2022-08-22T02:36:04.247Z,101243.16
2022-08-22T02:37:14.351Z,101240.47
2022-08-22T02:38:26.732Z,101233.38
2022-08-22T02:39:35.001Z,101235.25
2022-08-22T02:40:42.758Z,101236.56
2022-08-22T02:41:52.659Z,101232.00
2022-08-22T02:43:03.963Z,101238.44
2022-08-22T02:44:22.687Z,101240.34
2022-08-22T02:45:32.059Z,101239.28
2022-08-22T02:46:51.598Z,101237.66
2022-08-22T02:48:02.370Z,101237.66
2022-08-22T02:49:12.431Z,101238.69
2022-08-22T02:50:20.687Z,101239.53
2022-08-22T02:51:31.405Z,101238.69
2022-08-22T02:52:40.740Z,101232.44
2022-08-22T02:53:54.566Z,101232.69
2022-08-22T02:55:02.043Z,101237.06
2022-08-22T02:56:09.271Z,101230.00
2022-08-22T02:57:16.710Z,101237.06
2022-08-22T02:58:36.483Z,101235.41
2022-08-22T02:59:58.843Z,101230.81
2022-08-22T03:01:37.034Z,101225.41
2022-08-22T03:03:02.210Z,101231.06
2022-08-22T03:04:46.561Z,101227.75
2022-08-22T03:06:00.490Z,101226.72
2022-08-22T03:07:13.349Z,101230.47
2022-08-22T03:08:22.582Z,101233.19
2022-08-22T03:09:32.487Z,101228.00
2022-08-22T03:10:38.681Z,101229.88
2022-08-22T03:11:47.177Z,101227.19
2022-08-22T03:13:00.103Z,101225.53
2022-08-22T03:14:09.656Z,101232.03
2022-08-22T03:15:20.483Z,101230.94
2022-08-22T03:16:30.360Z,101229.31
2022-08-22T03:17:38.452Z,101223.91
2022-08-22T03:18:46.697Z,101231.78
2022-08-22T03:19:56.490Z,101220.13
2022-08-22T03:21:15.045Z,101228.84
2022-08-22T03:22:22.992Z,101219.88
2022-08-22T03:23:37.371Z,101226.13
2022-08-22T03:24:50.512Z,101230.47
2022-08-22T03:26:07.339Z,101233.19
2022-08-22T03:27:31.405Z,101227.75
2022-08-22T03:28:58.952Z,101219.66
2022-08-22T03:30:06.396Z,101231.31
2022-08-22T03:31:14.711Z,101233.19
2022-08-22T03:32:20.061Z,101232.13
2022-08-22T03:33:25.473Z,101234.84
2022-08-22T03:34:27.660Z,101235.63
2022-08-22T03:35:40.207Z,101234.84
2022-08-22T03:36:49.114Z,101237.53
2022-08-22T03:37:55.685Z,101231.31
2022-08-22T03:39:18.661Z,101234.00
2022-08-22T03:40:31.515Z,101235.88
2022-08-22T03:42:10.036Z,101243.75
2022-08-22T03:43:32.089Z,101237.53
2022-08-22T03:45:16.391Z,101238.34
2022-08-22T03:46:48.104Z,101246.22
2022-08-22T03:48:20.491Z,101242.72
2022-08-22T03:50:08.931Z,101253.78
2022-08-22T03:51:40.509Z,101248.38
2022-08-22T03:53:19.209Z,101241.28
2022-08-22T03:54:47.300Z,101244.00
2022-08-22T03:56:37.794Z,101248.38
2022-08-22T03:58:28.078Z,101257.53
2022-08-22T04:00:18.450Z,101248.38
2022-08-22T04:01:41.944Z,101246.47
2022-08-22T04:03:21.864Z,101251.06
2022-08-22T04:05:16.271Z,101253.97
2022-08-22T04:06:48.424Z,101239.66
2022-08-22T04:08:09.498Z,101246.94
2022-08-22T04:09:42.949Z,101250.97
2022-08-22T04:11:17.422Z,101251.41
2022-08-22T04:12:55.177Z,101258.13
2022-08-22T04:14:16.722Z,101247.56
2022-08-22T04:15:52.760Z,101252.38
2022-08-22T04:17:27.499Z,101254.47
2022-08-22T04:19:08.115Z,101250.16
2022-08-22T04:20:37.808Z,101252.03
2022-08-22T04:21:59.103Z,101256.56
2022-08-22T04:23:36.652Z,101255.78
2022-08-22T04:24:52.849Z,101253.31
2022-08-22T04:26:00.579Z,101256.81
2022-08-22T04:27:20.719Z,101250.00
2022-08-22T04:28:34.192Z,101264.56
2022-08-22T04:29:43.222Z,101257.28
2022-08-22T04:30:50.747Z,101252.13
2022-08-22T04:32:01.090Z,101254.59
2022-08-22T04:33:10.840Z,101256.44
2022-08-22T04:34:19.844Z,101253.50
2022-08-22T04:35:30.154Z,101252.72
2022-08-22T04:36:40.486Z,101250.00
2022-08-22T04:37:48.713Z,101260.59
2022-08-22T04:39:06.341Z,101265.41
2022-08-22T04:40:17.569Z,101260.59
2022-08-22T04:41:25.689Z,101261.63
2022-08-22T04:42:33.710Z,101265.16
2022-08-22T04:43:46.154Z,101267.03
2022-08-22T04:44:56.302Z,101268.69
2022-08-22T04:46:05.453Z,101266.81
2022-08-22T04:47:17.359Z,101274.94
2022-08-22T04:48:29.457Z,101278.44
2022-08-22T04:49:37.432Z,101276.56
2022-08-22T04:50:45.013Z,101277.63
2022-08-22T04:51:52.083Z,101274.09
2022-08-22T04:53:09.440Z,101272.44
2022-08-22T04:54:24.640Z,101272.44
2022-08-22T04:55:37.109Z,101271.41
2022-08-22T04:56:51.818Z,101267.88
2022-08-22T04:58:02.922Z,101274.94
2022-08-22T04:59:16.470Z,101259.50
2022-08-22T05:00:19.735Z,101265.75
2022-08-22T05:01:26.569Z,101274.94
2022-08-22T05:02:29.802Z,101268.47
2022-08-22T05:03:36.278Z,101275.75
2022-08-22T05:04:42.662Z,101271.16
2022-08-22T05:05:48.431Z,101270.94
2022-08-22T05:06:57.280Z,101269.28
2022-08-22T05:08:02.917Z,101271.78
2022-08-22T05:09:15.524Z,101271.78
2022-08-22T05:10:24.196Z,101275.50
2022-08-22T05:11:29.127Z,101280.09
2022-08-22T05:12:34.143Z,101286.09
2022-08-22T05:13:41.520Z,101284.25
2022-08-22T05:14:49.616Z,101284.25
2022-08-22T05:16:03.144Z,101281.53
2022-08-22T05:17:10.569Z,101282.38
2022-08-22T05:18:20.795Z,101286.94
2022-08-22T05:19:32.084Z,101286.94
2022-08-22T05:20:37.849Z,101276.97
2022-08-22T05:21:46.616Z,101286.31
2022-08-22T05:22:52.872Z,101281.53
2022-08-22T05:24:01.485Z,101284.25
2022-08-22T05:25:09.577Z,101280.50
2022-08-22T05:26:14.811Z,101288.59
2022-08-22T05:27:21.397Z,101284.81
2022-08-22T05:28:37.063Z,101288.13
2022-08-22T05:29:42.457Z,101292.47
2022-08-22T05:30:50.050Z,101286.22
2022-08-22T05:31:57.311Z,101293.53
2022-08-22T05:33:09.934Z,101290.84
2022-08-22T05:34:17.923Z,101290.22
2022-08-22T05:35:29.685Z,101285.06
2022-08-22T05:36:37.288Z,101290.72
2022-08-22T05:37:45.840Z,101296.34
2022-08-22T05:38:53.118Z,101295.50
2022-08-22T05:40:00.400Z,101299.47
2022-08-22T05:41:10.188Z,101299.47
2022-08-22T05:42:16.693Z,101294.31
2022-08-22T05:43:21.387Z,101295.38
2022-08-22T05:44:28.115Z,101293.75
2022-08-22T05:45:32.318Z,101301.03
2022-08-22T05:46:42.824Z,101302.31
2022-08-22T05:47:48.412Z,101292.31
2022-08-22T05:48:57.526Z,101303.97
2022-08-22T05:50:03.926Z,101299.59
2022-08-22T05:51:16.739Z,101295.84
2022-08-22T05:52:33.475Z,101295.03
2022-08-22T05:53:42.102Z,101297.72
2022-08-22T05:54:52.282Z,101293.41
2022-08-22T05:56:00.718Z,101296.09
2022-08-22T05:57:11.576Z,101294.44
2022-08-22T05:58:31.431Z,101288.22
2022-08-22T05:59:39.528Z,101289.25
2022-08-22T06:00:46.565Z,101293.63
2022-08-22T06:02:01.439Z,101294.66
2022-08-22T06:03:16.762Z,101300.09
2022-08-22T06:04:28.504Z,101304.22
2022-08-22T06:05:36.330Z,101303.13
2022-08-22T06:06:44.260Z,101298.56
2022-08-22T06:07:50.402Z,101293.16
2022-08-22T06:09:02.415Z,101302.66
2022-08-22T06:10:20.059Z,101301.38
2022-08-22T06:11:33.595Z,101318.22
2022-08-22T06:12:43.167Z,101313.59
2022-08-22T06:13:53.034Z,101311.53
2022-08-22T06:15:11.701Z,101315.06
2022-08-22T06:16:21.076Z,101312.34
2022-08-22T06:17:29.075Z,101322.69
2022-08-22T06:18:33.844Z,101319.75
2022-08-22T06:19:39.735Z,101319.75
2022-08-22T06:20:46.210Z,101317.88
2022-08-22T06:21:50.783Z,101317.41
2022-08-22T06:22:59.430Z,101316.31
2022-08-22T06:24:05.244Z,101304.84
2022-08-22T06:25:14.375Z,101321.28
2022-08-22T06:26:20.845Z,101321.28
2022-08-22T06:27:31.083Z,101318.34
2022-08-22T06:28:39.097Z,101331.63
2022-08-22T06:30:00.600Z,101326.56
2022-08-22T06:31:06.301Z,101327.38
2022-08-22T06:32:13.644Z,101330.69
2022-08-22T06:33:24.521Z,101329.41
2022-08-22T06:34:30.966Z,101327.25
2022-08-22T06:35:52.613Z,101327.03
2022-08-22T06:36:58.447Z,101333.84
2022-08-22T06:38:01.435Z,101331.72
2022-08-22T06:39:12.133Z,101332.31
2022-08-22T06:40:15.575Z,101332.69
2022-08-22T06:41:22.353Z,101330.53
2022-08-22T06:42:29.363Z,101331.13
2022-08-22T06:43:37.651Z,101336.06
2022-08-22T06:44:44.185Z,101340.19
2022-08-22T06:45:47.057Z,101333.47
2022-08-22T06:46:53.685Z,101338.41
2022-08-22T06:48:00.948Z,101322.53
2022-08-22T06:49:07.567Z,101329.91
2022-08-22T06:50:14.233Z,101329.44
2022-08-22T06:51:19.971Z,101325.19
2022-08-22T06:52:27.221Z,101326.09
2022-08-22T06:53:35.470Z,101322.09
2022-08-22T06:54:44.612Z,101334.09
2022-08-22T06:55:49.327Z,101325.25
2022-08-22T06:56:56.044Z,101328.88
2022-08-22T06:58:03.726Z,101332.53
2022-08-22T06:59:10.338Z,101326.97
2022-08-22T07:00:15.982Z,101331.19
2022-08-22T07:01:23.361Z,101335.38
2022-08-22T07:02:30.267Z,101317.50
2022-08-22T07:03:36.708Z,101329.19
2022-08-22T07:04:40.331Z,101333.63
2022-08-22T07:05:43.866Z,101341.63
2022-08-22T07:06:50.411Z,101347.94
2022-08-22T07:07:53.879Z,101341.78
2022-08-22T07:08:56.719Z,101347.53
2022-08-22T07:10:00.004Z,101347.03
2022-08-22T07:11:09.036Z,101345.50
2022-08-22T07:12:18.354Z,101348.53
2022-08-22T07:13:21.374Z,101349.44
2022-08-22T07:14:31.226Z,101354.72
2022-08-22T07:15:37.815Z,101350.78
2022-08-22T07:16:42.658Z,101346.59
2022-08-22T07:17:51.979Z,101347.00
2022-08-22T07:18:54.546Z,101348.47
2022-08-22T07:20:05.107Z,101349.63
2022-08-22T07:21:09.254Z,101354.03
2022-08-22T07:22:15.608Z,101355.44
2022-08-22T07:23:31.602Z,101351.16
2022-08-22T07:24:33.834Z,101362.25
2022-08-22T07:25:48.310Z,101353.69
2022-08-22T07:27:04.811Z,101361.91
2022-08-22T07:28:36.527Z,101361.38
2022-08-22T07:29:47.816Z,101357.38
2022-08-22T07:30:57.628Z,101358.75
2022-08-22T07:32:10.816Z,101357.69
2022-08-22T07:33:27.397Z,101360.47
2022-08-22T07:34:46.588Z,101363.00
2022-08-22T07:35:59.375Z,101362.84
2022-08-22T07:37:06.782Z,101356.38
2022-08-22T07:38:20.793Z,101364.59
2022-08-22T07:39:28.577Z,101361.41
2022-08-22T07:40:40.041Z,101370.09
2022-08-22T07:41:54.804Z,101376.94
2022-08-22T07:43:04.459Z,101364.72
2022-08-22T07:44:14.922Z,101367.22
2022-08-22T07:45:22.907Z,101372.41
2022-08-22T07:46:29.883Z,101372.13
2022-08-22T07:47:57.191Z,101378.38
2022-08-22T07:49:10.310Z,101374.84
2022-08-22T07:50:19.601Z,101379.72
2022-08-22T07:51:34.287Z,101377.84
2022-08-22T07:52:43.080Z,101379.97
2022-08-22T07:53:50.207Z,101366.38
2022-08-22T07:55:01.539Z,101369.94
2022-08-22T07:56:06.986Z,101368.03
2022-08-22T07:57:15.380Z,101377.31
2022-08-22T07:58:19.234Z,101367.56
2022-08-22T07:59:23.153Z,101373.06
2022-08-22T08:00:27.143Z,101371.22
2022-08-22T08:01:31.142Z,101374.00
2022-08-22T08:02:33.509Z,101366.16
2022-08-22T08:03:37.482Z,101367.31
2022-08-22T08:04:41.396Z,101364.06
2022-08-22T08:05:46.370Z,101365.22
2022-08-22T08:06:52.962Z,101368.22
2022-08-22T08:07:57.840Z,101364.75
2022-08-22T08:09:01.441Z,101360.41
2022-08-22T08:10:09.954Z,101368.34
2022-08-22T08:11:18.971Z,101356.50
2022-08-22T08:12:31.062Z,101360.91
2022-08-22T08:13:35.978Z,101363.41
2022-08-22T08:14:42.221Z,101369.44
2022-08-22T08:15:45.775Z,101366.78
2022-08-22T08:16:57.169Z,101365.97
2022-08-22T08:18:05.645Z,101364.13
2022-08-22T08:19:11.709Z,101359.81
2022-08-22T08:20:17.834Z,101363.13
2022-08-22T08:21:29.736Z,101364.22
2022-08-22T08:22:34.394Z,101363.16
2022-08-22T08:23:42.541Z,101363.16
2022-08-22T08:24:46.411Z,101362.06
2022-08-22T08:25:55.911Z,101360.69
2022-08-22T08:27:20.878Z,101362.94
2022-08-22T08:28:36.126Z,101370.88
2022-08-22T08:29:40.081Z,101355.34
2022-08-22T08:30:45.736Z,101355.66
2022-08-22T08:31:49.050Z,101352.44
2022-08-22T08:32:57.626Z,101355.44
2022-08-22T08:34:25.820Z,101368.84
2022-08-22T08:35:29.908Z,101352.00
2022-08-22T08:36:52.452Z,101352.81
2022-08-22T08:38:00.907Z,101347.66
2022-08-22T08:39:15.887Z,101357.50
2022-08-22T08:40:35.711Z,101348.78
2022-08-22T08:42:08.100Z,101347.16
2022-08-22T08:43:28.201Z,101341.72
2022-08-22T08:45:02.283Z,101337.91
2022-08-22T08:46:39.086Z,101338.47
2022-08-22T08:48:04.607Z,101343.38
2022-08-22T08:49:24.031Z,101340.38
2022-08-22T08:50:52.410Z,101340.66
2022-08-22T08:52:30.772Z,101337.41
2022-08-22T08:54:15.820Z,101334.69
2022-08-22T08:55:38.529Z,101341.53
2022-08-22T08:56:54.439Z,101345.63
2022-08-22T08:58:24.645Z,101335.00
2022-08-22T08:59:44.146Z,101339.91
2022-08-22T09:00:56.161Z,101346.50
2022-08-22T09:02:23.749Z,101341.63
2022-08-22T09:03:51.299Z,101335.91
2022-08-22T09:05:19.594Z,101334.88
2022-08-22T09:06:54.813Z,101337.03
2022-08-22T09:08:22.469Z,101340.88
2022-08-22T09:09:45.600Z,101338.44
2022-08-22T09:11:15.785Z,101332.72
2022-08-22T09:12:54.320Z,101335.44
2022-08-22T09:14:17.256Z,101327.53
2022-08-22T09:15:43.283Z,101337.06
2022-08-22T09:17:32.741Z,101334.63
2022-08-22T09:19:20.687Z,101335.19
2022-08-22T09:20:46.317Z,101336.00
2022-08-22T09:22:14.194Z,101333.00
2022-08-22T09:24:02.493Z,101333.28
2022-08-22T09:25:25.166Z,101331.91
2022-08-22T09:26:38.653Z,101328.91
2022-08-22T09:27:50.329Z,101321.28
2022-08-22T09:28:59.375Z,101324.56
2022-08-22T09:30:11.513Z,101324.00
2022-08-22T09:31:51.561Z,101312.53
2022-08-22T09:33:00.937Z,101311.75
2022-08-22T09:34:11.234Z,101315.84
2022-08-22T09:35:25.985Z,101308.47
2022-08-22T09:36:35.863Z,101309.81
2022-08-22T09:37:59.116Z,101309.56
2022-08-22T09:39:13.125Z,101310.09
2022-08-22T09:41:41.961Z,101306.31
2022-08-22T09:42:55.195Z,101306.03
2022-08-22T09:44:09.697Z,101304.34
2022-08-22T09:45:37.771Z,101302.72
2022-08-22T09:46:52.878Z,101304.31
2022-08-22T09:48:07.324Z,101303.22
2022-08-22T09:49:16.472Z,101313.59
2022-08-22T09:50:24.746Z,101307.00
2022-08-22T09:51:40.388Z,101293.31
2022-08-22T09:53:06.480Z,101303.16
2022-08-22T09:54:18.881Z,101296.59
2022-08-22T09:55:40.765Z,101295.47
2022-08-22T09:56:55.855Z,101299.81
2022-08-22T09:58:05.606Z,101295.44
2022-08-22T09:59:23.198Z,101303.59
2022-08-22T10:00:34.264Z,101303.03
2022-08-22T10:46:29.611Z,101275.38
2022-08-22T10:47:38.465Z,101279.19
2022-08-22T10:48:48.829Z,101278.31
2022-08-22T10:49:55.733Z,101275.28
2022-08-22T10:51:10.875Z,101281.28
2022-08-22T10:52:20.892Z,101278.00
2022-08-22T10:53:30.511Z,101271.69
2022-08-22T10:54:47.378Z,101275.53
2022-08-22T10:55:54.596Z,101278.56
2022-08-22T10:57:09.538Z,101284.84
2022-08-22T10:58:14.592Z,101269.25
2022-08-22T10:59:30.270Z,101282.63
2022-08-22T11:00:46.525Z,101278.53
2022-08-22T11:02:08.914Z,101281.53
2022-08-22T11:03:19.994Z,101276.31
2022-08-22T11:04:41.978Z,101270.28
2022-08-22T11:05:50.176Z,101269.44
2022-08-22T11:07:04.869Z,101270.78
2022-08-22T11:08:30.162Z,101275.09
2022-08-22T11:09:41.759Z,101276.44
2022-08-22T11:11:16.095Z,101275.84
2022-08-22T11:12:28.181Z,101271.94
2022-08-22T11:13:43.913Z,101270.28
2022-08-22T11:15:11.320Z,101274.38
2022-08-22T11:16:23.939Z,101272.16
2022-08-22T11:17:55.105Z,101274.91
2022-08-22T11:19:14.699Z,101282.56
2022-08-22T11:20:26.685Z,101274.94
2022-08-22T11:21:45.965Z,101269.22
2022-08-22T11:23:12.357Z,101274.44
2022-08-22T11:24:35.584Z,101274.72
2022-08-22T11:25:53.835Z,101269.53
2022-08-22T11:27:01.178Z,101274.47
2022-08-22T11:28:32.997Z,101274.47
2022-08-22T11:29:44.331Z,101273.66
2022-08-22T11:30:57.946Z,101269.81
2022-08-22T11:32:08.267Z,101273.38
2022-08-22T11:33:46.192Z,101272.53
2022-08-22T11:34:58.283Z,101266.75
2022-08-22T11:36:12.834Z,101275.75
2022-08-22T11:37:42.823Z,101268.09
2022-08-22T11:38:59.271Z,101277.09
2022-08-22T11:40:20.228Z,101275.19
2022-08-22T11:41:27.611Z,101270.56
2022-08-22T11:42:37.085Z,101268.63
2022-08-22T11:43:56.806Z,101268.38
2022-08-22T11:45:01.896Z,101248.81
2022-08-22T11:46:20.014Z,101265.16
2022-08-22T11:47:28.928Z,101260.75
2022-08-22T11:48:41.998Z,101263.78
2022-08-22T11:49:57.466Z,101258.31
2022-08-22T11:51:15.536Z,101258.31
2022-08-22T11:52:40.235Z,101263.22
2022-08-22T11:53:51.617Z,101273.59
2022-08-22T11:55:15.570Z,101261.78
2022-08-22T11:56:24.830Z,101266.13
2022-08-22T11:57:34.165Z,101263.38
2022-08-22T11:58:49.317Z,101265.00
2022-08-22T12:00:20.686Z,101260.81
2022-08-22T12:01:34.367Z,101264.88
2022-08-22T12:02:47.528Z,101259.63
2022-08-22T12:04:04.974Z,101261.50
2022-08-22T12:05:24.423Z,101258.72
2022-08-22T12:06:59.360Z,101252.91
2022-08-22T12:08:11.461Z,101253.69
2022-08-22T12:09:29.720Z,101259.63
2022-08-22T12:10:37.098Z,101253.53
2022-08-22T12:11:51.696Z,101255.41
2022-08-22T12:13:01.942Z,101249.88
2022-08-22T12:14:08.442Z,101249.59
2022-08-22T12:15:21.316Z,101241.69
2022-08-22T12:16:35.853Z,101247.75
2022-08-22T12:18:19.922Z,101256.81
2022-08-22T12:19:32.882Z,101249.19
2022-08-22T12:21:11.999Z,101255.25
2022-08-22T12:22:48.719Z,101250.66
2022-08-22T12:24:23.154Z,101250.94
2022-08-22T12:25:48.070Z,101255.59
2022-08-22T12:27:29.055Z,101248.22
2022-08-22T12:28:39.943Z,101253.63
2022-08-22T12:29:55.989Z,101249.19
2022-08-22T12:31:11.205Z,101253.81
2022-08-22T12:32:49.333Z,101248.59
2022-08-22T12:34:17.118Z,101240.91
2022-08-22T12:35:34.489Z,101242.25
2022-08-22T12:37:04.848Z,101249.59
2022-08-22T12:38:28.402Z,101242.75
2022-08-22T12:40:08.680Z,101235.84
2022-08-22T12:41:38.453Z,101245.19
2022-08-22T12:43:04.389Z,101231.97
2022-08-22T12:44:25.577Z,101230.91
2022-08-22T12:45:55.293Z,101230.31
2022-08-22T12:47:17.281Z,101230.84
2022-08-22T12:48:37.753Z,101234.34
2022-08-22T12:50:08.545Z,101235.38
2022-08-22T12:51:29.403Z,101227.91
2022-08-22T12:52:50.185Z,101232.50
2022-08-22T12:54:30.879Z,101239.88
2022-08-22T12:55:48.768Z,101233.03
2022-08-22T12:57:01.106Z,101228.69
2022-08-22T12:58:15.991Z,101233.03
2022-08-22T12:59:25.680Z,101234.44
2022-08-22T13:00:34.668Z,101231.97
2022-08-22T13:01:43.380Z,101235.00
2022-08-22T13:02:47.388Z,101233.94
2022-08-22T13:03:54.572Z,101224.06
2022-08-22T13:05:01.899Z,101234.44
2022-08-22T13:06:26.058Z,101234.44
2022-08-22T13:07:33.518Z,101233.34
2022-08-22T13:08:40.240Z,101227.31
2022-08-22T13:09:48.512Z,101238.00
2022-08-22T13:11:02.144Z,101237.19
2022-08-22T13:12:20.087Z,101229.53
2022-08-22T13:13:36.998Z,101239.69
2022-08-22T13:14:40.054Z,101227.09
2022-08-22T13:15:53.745Z,101233.41
2022-08-22T13:16:58.891Z,101235.00
2022-08-22T13:18:28.456Z,101224.34
2022-08-22T13:19:33.503Z,101226.22
2022-08-22T13:20:39.059Z,101228.97
2022-08-22T13:21:52.996Z,101226.72
2022-08-22T13:22:59.828Z,101226.72
2022-08-22T13:24:10.443Z,101230.59
2022-08-22T13:25:25.903Z,101231.19
2022-08-22T13:26:33.777Z,101227.38
2022-08-22T13:27:51.137Z,101231.25
2022-08-22T13:29:24.138Z,101226.84
2022-08-22T13:30:28.672Z,101219.22
2022-08-22T13:31:33.818Z,101223.59
2022-08-22T13:32:44.380Z,101228.56
2022-08-22T13:33:48.196Z,101219.22
2022-08-22T13:34:54.524Z,101221.13
2022-08-22T13:36:03.036Z,101221.44
2022-08-22T13:37:07.797Z,101222.25
2022-08-22T13:38:25.679Z,101220.91
2022-08-22T13:39:34.979Z,101219.28
2022-08-22T13:40:40.474Z,101225.34
2022-08-22T13:41:49.633Z,101217.72
2022-08-22T13:42:58.649Z,101218.59
2022-08-22T13:44:17.443Z,101216.13
2022-08-22T13:45:25.406Z,101218.34
2022-08-22T13:46:30.476Z,101215.59
2022-08-22T13:47:50.154Z,101215.59
2022-08-22T13:49:00.699Z,101222.72
2022-08-22T13:50:07.549Z,101218.09
2022-08-22T13:51:16.857Z,101216.13
2022-08-22T13:52:30.729Z,101220.22
2022-08-22T13:53:43.258Z,101220.22
2022-08-22T13:54:58.332Z,101220.53
2022-08-22T13:56:15.913Z,101221.63
2022-08-22T13:57:23.773Z,101214.53
2022-08-22T13:58:38.794Z,101220.28
2022-08-22T13:59:51.806Z,101218.94
2022-08-22T14:01:15.016Z,101221.13
2022-08-22T14:02:32.337Z,101212.44
2022-08-22T14:03:45.543Z,101209.16
2022-08-22T14:04:53.816Z,101212.44
2022-08-22T14:06:32.790Z,101211.91
2022-08-22T14:07:34.276Z,101209.22
2022-08-22T14:08:45.270Z,101207.63
2022-08-22T14:09:56.640Z,101210.38
2022-08-22T14:11:07.061Z,101202.44
2022-08-22T14:12:16.892Z,101210.97
2022-08-22T14:13:32.360Z,101203.03
2022-08-22T14:14:39.048Z,101204.94
2022-08-22T14:15:45.540Z,101206.91
2022-08-22T14:16:53.577Z,101208.81
2022-08-22T14:18:00.793Z,101202.50
2022-08-22T14:19:09.844Z,101207.19
2022-08-22T14:20:32.111Z,101201.41
2022-08-22T14:21:41.986Z,101203.03
2022-08-22T14:22:58.900Z,101202.44
2022-08-22T14:24:13.911Z,101198.28
2022-08-22T14:25:21.485Z,101195.47
2022-08-22T14:26:33.087Z,101199.09
2022-08-22T14:27:56.116Z,101194.28
2022-08-22T14:29:12.925Z,101189.66
2022-08-22T14:30:18.870Z,101190.00
2022-08-22T14:31:26.210Z,101192.22
2022-08-22T14:32:37.585Z,101190.03
2022-08-22T14:33:48.270Z,101189.50
2022-08-22T14:34:59.556Z,101187.63
2022-08-22T14:36:11.705Z,101182.50
2022-08-22T14:37:22.089Z,101189.13
2022-08-22T14:38:30.465Z,101182.66
2022-08-22T14:39:42.781Z,101188.97
2022-08-22T14:40:52.015Z,101184.31
2022-08-22T14:42:06.098Z,101165.53
2022-08-22T14:43:22.559Z,101175.06
2022-08-22T14:44:31.260Z,101184.81
2022-08-22T14:45:39.604Z,101177.78
2022-08-22T14:46:47.920Z,101178.78
2022-08-22T14:48:29.452Z,101192.28
2022-08-22T14:49:36.423Z,101177.56
2022-08-22T14:50:46.118Z,101178.97
2022-08-22T14:51:51.120Z,101188.97
2022-08-22T14:53:05.981Z,101182.06
2022-08-22T14:54:21.077Z,101178.22
2022-08-22T14:55:30.582Z,101176.06
2022-08-22T14:56:36.402Z,101176.41